sensor_id;sensor_type;location;lat;lon;timestamp;P1;durP1;ratioP1;P2;durP2;ratioP2
51495;SDS011;37572;52.094;4.870;2024-02-23T00:00:23;7.20;;;1.63;;
51495;SDS011;37572;52.094;4.870;2024-02-23T00:02:49;5.20;;;1.65;;
51495;SDS011;37572;52.094;4.870;2024-02-23T00:05:14;9.30;;;1.60;;
51495;SDS011;37572;52.094;4.870;2024-02-23T00:07:39;6.20;;;1.93;;
51495;SDS011;37572;52.094;4.870;2024-02-23T00:10:05;7.07;;;1.63;;
51495;SDS011;37572;52.094;4.870;2024-02-23T00:12:31;8.32;;;1.77;;
51495;SDS011;37572;52.094;4.870;2024-02-23T00:14:56;7.78;;;2.35;;
51495;SDS011;37572;52.094;4.870;2024-02-23T00:17:22;8.35;;;2.00;;
51495;SDS011;37572;52.094;4.870;2024-02-23T00:19:48;6.55;;;2.17;;
51495;SDS011;37572;52.094;4.870;2024-02-23T00:22:14;9.32;;;2.28;;
51495;SDS011;37572;52.094;4.870;2024-02-23T00:24:39;6.30;;;2.63;;
51495;SDS011;37572;52.094;4.870;2024-02-23T00:27:05;6.43;;;1.48;;
51495;SDS011;37572;52.094;4.870;2024-02-23T00:29:31;6.50;;;2.22;;
51495;SDS011;37572;52.094;4.870;2024-02-23T00:31:56;5.00;;;1.77;;
51495;SDS011;37572;52.094;4.870;2024-02-23T00:34:21;10.53;;;1.80;;
51495;SDS011;37572;52.094;4.870;2024-02-23T00:36:47;7.82;;;1.58;;
51495;SDS011;37572;52.094;4.870;2024-02-23T00:39:13;7.93;;;1.77;;
51495;SDS011;37572;52.094;4.870;2024-02-23T00:41:39;6.32;;;2.17;;
51495;SDS011;37572;52.094;4.870;2024-02-23T00:44:04;6.65;;;2.00;;
51495;SDS011;37572;52.094;4.870;2024-02-23T00:46:29;7.40;;;1.60;;
51495;SDS011;37572;52.094;4.870;2024-02-23T00:48:55;6.15;;;1.83;;
51495;SDS011;37572;52.094;4.870;2024-02-23T00:51:20;7.30;;;1.80;;
51495;SDS011;37572;52.094;4.870;2024-02-23T00:53:46;9.90;;;2.22;;
51495;SDS011;37572;52.094;4.870;2024-02-23T00:56:12;6.07;;;1.52;;
51495;SDS011;37572;52.094;4.870;2024-02-23T00:58:37;5.93;;;1.63;;
51495;SDS011;37572;52.094;4.870;2024-02-23T01:01:03;9.48;;;1.65;;
51495;SDS011;37572;52.094;4.870;2024-02-23T01:03:29;5.85;;;1.38;;
51495;SDS011;37572;52.094;4.870;2024-02-23T01:05:54;6.40;;;2.00;;
51495;SDS011;37572;52.094;4.870;2024-02-23T01:08:19;3.37;;;1.80;;
51495;SDS011;37572;52.094;4.870;2024-02-23T01:10:45;8.33;;;2.47;;
51495;SDS011;37572;52.094;4.870;2024-02-23T01:13:10;5.53;;;2.23;;
51495;SDS011;37572;52.094;4.870;2024-02-23T01:15:35;3.67;;;1.17;;
51495;SDS011;37572;52.094;4.870;2024-02-23T01:18:01;6.67;;;1.83;;
51495;SDS011;37572;52.094;4.870;2024-02-23T01:20:26;7.40;;;2.08;;
51495;SDS011;37572;52.094;4.870;2024-02-23T01:22:51;6.28;;;2.25;;
51495;SDS011;37572;52.094;4.870;2024-02-23T01:25:17;6.37;;;1.53;;
51495;SDS011;37572;52.094;4.870;2024-02-23T01:27:42;5.15;;;1.55;;
51495;SDS011;37572;52.094;4.870;2024-02-23T01:30:09;6.93;;;1.95;;
51495;SDS011;37572;52.094;4.870;2024-02-23T01:32:35;7.40;;;1.52;;
51495;SDS011;37572;52.094;4.870;2024-02-23T01:35:02;5.90;;;1.65;;
51495;SDS011;37572;52.094;4.870;2024-02-23T01:37:28;4.85;;;1.38;;
51495;SDS011;37572;52.094;4.870;2024-02-23T01:39:53;5.37;;;1.30;;
51495;SDS011;37572;52.094;4.870;2024-02-23T01:42:18;6.55;;;1.15;;
51495;SDS011;37572;52.094;4.870;2024-02-23T01:44:44;3.85;;;1.38;;
51495;SDS011;37572;52.094;4.870;2024-02-23T01:47:10;7.97;;;1.55;;
51495;SDS011;37572;52.094;4.870;2024-02-23T01:49:36;5.50;;;1.60;;
51495;SDS011;37572;52.094;4.870;2024-02-23T01:52:02;6.80;;;1.83;;
51495;SDS011;37572;52.094;4.870;2024-02-23T01:54:28;8.45;;;1.90;;
51495;SDS011;37572;52.094;4.870;2024-02-23T01:56:54;6.90;;;1.95;;
51495;SDS011;37572;52.094;4.870;2024-02-23T01:59:22;7.53;;;1.90;;
51495;SDS011;37572;52.094;4.870;2024-02-23T02:01:48;5.35;;;1.45;;
51495;SDS011;37572;52.094;4.870;2024-02-23T02:04:13;5.13;;;1.90;;
51495;SDS011;37572;52.094;4.870;2024-02-23T02:06:39;5.22;;;1.38;;
51495;SDS011;37572;52.094;4.870;2024-02-23T02:09:04;7.43;;;1.05;;
51495;SDS011;37572;52.094;4.870;2024-02-23T02:11:30;6.93;;;1.48;;
51495;SDS011;37572;52.094;4.870;2024-02-23T02:13:56;6.45;;;1.75;;
51495;SDS011;37572;52.094;4.870;2024-02-23T02:16:21;5.85;;;2.35;;
51495;SDS011;37572;52.094;4.870;2024-02-23T02:18:46;6.53;;;2.42;;
51495;SDS011;37572;52.094;4.870;2024-02-23T02:21:12;5.55;;;1.23;;
51495;SDS011;37572;52.094;4.870;2024-02-23T02:23:37;5.53;;;1.70;;
51495;SDS011;37572;52.094;4.870;2024-02-23T02:26:03;6.82;;;1.80;;
51495;SDS011;37572;52.094;4.870;2024-02-23T02:28:29;9.63;;;1.45;;
51495;SDS011;37572;52.094;4.870;2024-02-23T02:30:54;5.63;;;2.10;;
51495;SDS011;37572;52.094;4.870;2024-02-23T02:33:21;5.75;;;1.45;;
51495;SDS011;37572;52.094;4.870;2024-02-23T02:35:47;6.63;;;1.77;;
51495;SDS011;37572;52.094;4.870;2024-02-23T02:38:12;7.78;;;1.40;;
51495;SDS011;37572;52.094;4.870;2024-02-23T02:40:38;11.90;;;2.72;;
51495;SDS011;37572;52.094;4.870;2024-02-23T02:43:03;5.35;;;1.67;;
51495;SDS011;37572;52.094;4.870;2024-02-23T02:45:30;6.00;;;2.20;;
51495;SDS011;37572;52.094;4.870;2024-02-23T02:47:55;6.82;;;1.67;;
51495;SDS011;37572;52.094;4.870;2024-02-23T02:50:21;6.28;;;1.52;;
51495;SDS011;37572;52.094;4.870;2024-02-23T02:52:46;6.70;;;1.27;;
51495;SDS011;37572;52.094;4.870;2024-02-23T02:55:12;5.22;;;1.15;;
51495;SDS011;37572;52.094;4.870;2024-02-23T02:57:38;7.82;;;1.58;;
51495;SDS011;37572;52.094;4.870;2024-02-23T03:00:03;8.13;;;2.10;;
51495;SDS011;37572;52.094;4.870;2024-02-23T03:02:30;5.13;;;1.75;;
51495;SDS011;37572;52.094;4.870;2024-02-23T03:04:59;7.35;;;1.27;;
51495;SDS011;37572;52.094;4.870;2024-02-23T03:07:25;4.50;;;1.70;;
51495;SDS011;37572;52.094;4.870;2024-02-23T03:09:50;8.20;;;1.67;;
51495;SDS011;37572;52.094;4.870;2024-02-23T03:12:16;5.03;;;1.55;;
51495;SDS011;37572;52.094;4.870;2024-02-23T03:14:42;6.00;;;1.63;;
51495;SDS011;37572;52.094;4.870;2024-02-23T03:17:07;6.55;;;2.42;;
51495;SDS011;37572;52.094;4.870;2024-02-23T03:19:34;6.05;;;1.38;;
51495;SDS011;37572;52.094;4.870;2024-02-23T03:22:00;3.58;;;1.15;;
51495;SDS011;37572;52.094;4.870;2024-02-23T03:24:25;5.07;;;1.33;;
51495;SDS011;37572;52.094;4.870;2024-02-23T03:26:50;5.60;;;2.00;;
51495;SDS011;37572;52.094;4.870;2024-02-23T03:29:16;9.30;;;2.90;;
51495;SDS011;37572;52.094;4.870;2024-02-23T03:31:41;5.77;;;1.97;;
51495;SDS011;37572;52.094;4.870;2024-02-23T03:34:06;5.00;;;1.58;;
51495;SDS011;37572;52.094;4.870;2024-02-23T03:36:32;5.03;;;2.22;;
51495;SDS011;37572;52.094;4.870;2024-02-23T03:38:58;5.47;;;1.55;;
51495;SDS011;37572;52.094;4.870;2024-02-23T03:41:24;6.03;;;1.83;;
51495;SDS011;37572;52.094;4.870;2024-02-23T03:43:49;5.23;;;1.63;;
51495;SDS011;37572;52.094;4.870;2024-02-23T03:46:14;6.03;;;2.40;;
51495;SDS011;37572;52.094;4.870;2024-02-23T03:48:41;9.77;;;2.30;;
51495;SDS011;37572;52.094;4.870;2024-02-23T03:51:08;5.57;;;2.55;;
51495;SDS011;37572;52.094;4.870;2024-02-23T03:53:34;7.20;;;1.67;;
51495;SDS011;37572;52.094;4.870;2024-02-23T03:55:59;5.10;;;1.30;;
51495;SDS011;37572;52.094;4.870;2024-02-23T03:58:24;5.22;;;1.65;;
51495;SDS011;37572;52.094;4.870;2024-02-23T04:00:50;5.32;;;1.70;;
51495;SDS011;37572;52.094;4.870;2024-02-23T04:03:16;5.05;;;2.03;;
51495;SDS011;37572;52.094;4.870;2024-02-23T04:05:41;7.55;;;3.00;;
51495;SDS011;37572;52.094;4.870;2024-02-23T04:08:06;5.40;;;1.35;;
51495;SDS011;37572;52.094;4.870;2024-02-23T04:10:32;5.40;;;2.13;;
51495;SDS011;37572;52.094;4.870;2024-02-23T04:12:57;4.43;;;2.13;;
51495;SDS011;37572;52.094;4.870;2024-02-23T04:15:23;9.80;;;2.40;;
51495;SDS011;37572;52.094;4.870;2024-02-23T04:17:48;7.40;;;2.22;;
51495;SDS011;37572;52.094;4.870;2024-02-23T04:20:13;5.43;;;2.37;;
51495;SDS011;37572;52.094;4.870;2024-02-23T04:22:39;8.80;;;1.95;;
51495;SDS011;37572;52.094;4.870;2024-02-23T04:25:04;3.47;;;1.38;;
51495;SDS011;37572;52.094;4.870;2024-02-23T04:27:30;7.32;;;1.95;;
51495;SDS011;37572;52.094;4.870;2024-02-23T04:29:55;5.55;;;2.33;;
51495;SDS011;37572;52.094;4.870;2024-02-23T04:32:21;9.50;;;2.03;;
51495;SDS011;37572;52.094;4.870;2024-02-23T04:34:46;8.53;;;2.87;;
51495;SDS011;37572;52.094;4.870;2024-02-23T04:37:11;5.47;;;1.77;;
51495;SDS011;37572;52.094;4.870;2024-02-23T04:39:37;7.87;;;2.37;;
51495;SDS011;37572;52.094;4.870;2024-02-23T04:42:03;4.63;;;2.30;;
51495;SDS011;37572;52.094;4.870;2024-02-23T04:44:29;6.00;;;2.47;;
51495;SDS011;37572;52.094;4.870;2024-02-23T04:46:54;7.33;;;2.60;;
51495;SDS011;37572;52.094;4.870;2024-02-23T04:49:20;9.70;;;2.10;;
51495;SDS011;37572;52.094;4.870;2024-02-23T04:51:45;7.67;;;2.27;;
51495;SDS011;37572;52.094;4.870;2024-02-23T04:54:10;6.88;;;2.40;;
51495;SDS011;37572;52.094;4.870;2024-02-23T04:56:35;4.73;;;2.17;;
51495;SDS011;37572;52.094;4.870;2024-02-23T04:59:01;6.57;;;2.15;;
51495;SDS011;37572;52.094;4.870;2024-02-23T05:01:26;6.47;;;2.50;;
51495;SDS011;37572;52.094;4.870;2024-02-23T05:03:52;6.63;;;2.70;;
51495;SDS011;37572;52.094;4.870;2024-02-23T05:06:17;7.07;;;3.20;;
51495;SDS011;37572;52.094;4.870;2024-02-23T05:08:42;5.47;;;2.80;;
51495;SDS011;37572;52.094;4.870;2024-02-23T05:11:08;7.53;;;3.27;;
51495;SDS011;37572;52.094;4.870;2024-02-23T05:13:33;5.43;;;2.72;;
51495;SDS011;37572;52.094;4.870;2024-02-23T05:15:58;7.43;;;2.63;;
51495;SDS011;37572;52.094;4.870;2024-02-23T05:18:24;9.00;;;2.95;;
51495;SDS011;37572;52.094;4.870;2024-02-23T05:20:49;7.68;;;2.63;;
51495;SDS011;37572;52.094;4.870;2024-02-23T05:23:14;11.40;;;3.97;;
51495;SDS011;37572;52.094;4.870;2024-02-23T05:25:43;10.57;;;3.47;;
51495;SDS011;37572;52.094;4.870;2024-02-23T05:28:08;13.40;;;2.78;;
51495;SDS011;37572;52.094;4.870;2024-02-23T05:30:34;5.77;;;2.77;;
51495;SDS011;37572;52.094;4.870;2024-02-23T05:33:00;10.80;;;3.45;;
51495;SDS011;37572;52.094;4.870;2024-02-23T05:35:28;6.50;;;2.72;;
51495;SDS011;37572;52.094;4.870;2024-02-23T05:37:54;5.82;;;3.75;;
51495;SDS011;37572;52.094;4.870;2024-02-23T05:40:20;9.20;;;3.15;;
51495;SDS011;37572;52.094;4.870;2024-02-23T05:42:46;8.23;;;3.13;;
51495;SDS011;37572;52.094;4.870;2024-02-23T05:45:11;6.07;;;3.37;;
51495;SDS011;37572;52.094;4.870;2024-02-23T05:47:37;7.67;;;2.93;;
51495;SDS011;37572;52.094;4.870;2024-02-23T05:50:03;6.40;;;3.28;;
51495;SDS011;37572;52.094;4.870;2024-02-23T05:52:32;7.40;;;3.42;;
51495;SDS011;37572;52.094;4.870;2024-02-23T05:54:58;5.55;;;3.30;;
51495;SDS011;37572;52.094;4.870;2024-02-23T05:57:25;6.70;;;3.38;;
51495;SDS011;37572;52.094;4.870;2024-02-23T05:59:54;7.25;;;3.42;;
51495;SDS011;37572;52.094;4.870;2024-02-23T06:02:20;8.38;;;2.60;;
51495;SDS011;37572;52.094;4.870;2024-02-23T06:04:46;5.22;;;2.70;;
51495;SDS011;37572;52.094;4.870;2024-02-23T06:07:12;6.03;;;2.17;;
51495;SDS011;37572;52.094;4.870;2024-02-23T06:09:38;9.80;;;3.00;;
51495;SDS011;37572;52.094;4.870;2024-02-23T06:12:04;4.97;;;2.23;;
51495;SDS011;37572;52.094;4.870;2024-02-23T06:14:30;5.78;;;2.58;;
51495;SDS011;37572;52.094;4.870;2024-02-23T06:16:55;4.80;;;2.33;;
51495;SDS011;37572;52.094;4.870;2024-02-23T06:19:21;5.40;;;2.20;;
51495;SDS011;37572;52.094;4.870;2024-02-23T06:21:49;5.10;;;2.13;;
51495;SDS011;37572;52.094;4.870;2024-02-23T06:24:15;9.25;;;3.28;;
51495;SDS011;37572;52.094;4.870;2024-02-23T06:26:41;5.30;;;2.78;;
51495;SDS011;37572;52.094;4.870;2024-02-23T06:29:07;5.00;;;3.17;;
51495;SDS011;37572;52.094;4.870;2024-02-23T06:31:36;6.97;;;3.05;;
51495;SDS011;37572;52.094;4.870;2024-02-23T06:34:01;8.25;;;2.88;;
51495;SDS011;37572;52.094;4.870;2024-02-23T06:36:27;9.43;;;2.83;;
51495;SDS011;37572;52.094;4.870;2024-02-23T06:38:52;5.53;;;2.33;;
51495;SDS011;37572;52.094;4.870;2024-02-23T06:41:17;6.37;;;2.43;;
51495;SDS011;37572;52.094;4.870;2024-02-23T06:43:43;6.80;;;2.95;;
51495;SDS011;37572;52.094;4.870;2024-02-23T06:46:08;6.77;;;3.23;;
51495;SDS011;37572;52.094;4.870;2024-02-23T06:48:35;6.38;;;3.63;;
51495;SDS011;37572;52.094;4.870;2024-02-23T06:51:00;8.15;;;3.80;;
51495;SDS011;37572;52.094;4.870;2024-02-23T06:53:26;5.70;;;2.78;;
51495;SDS011;37572;52.094;4.870;2024-02-23T06:55:51;8.40;;;4.65;;
51495;SDS011;37572;52.094;4.870;2024-02-23T06:58:16;8.10;;;3.53;;
51495;SDS011;37572;52.094;4.870;2024-02-23T07:00:43;8.77;;;3.92;;
51495;SDS011;37572;52.094;4.870;2024-02-23T07:03:09;6.88;;;3.42;;
51495;SDS011;37572;52.094;4.870;2024-02-23T07:05:34;6.80;;;3.42;;
51495;SDS011;37572;52.094;4.870;2024-02-23T07:08:00;7.35;;;3.05;;
51495;SDS011;37572;52.094;4.870;2024-02-23T07:10:26;6.90;;;3.30;;
51495;SDS011;37572;52.094;4.870;2024-02-23T07:12:52;5.45;;;3.92;;
51495;SDS011;37572;52.094;4.870;2024-02-23T07:15:18;8.68;;;3.63;;
51495;SDS011;37572;52.094;4.870;2024-02-23T07:17:44;5.32;;;3.65;;
51495;SDS011;37572;52.094;4.870;2024-02-23T07:20:10;5.55;;;2.78;;
51495;SDS011;37572;52.094;4.870;2024-02-23T07:22:36;8.60;;;4.40;;
51495;SDS011;37572;52.094;4.870;2024-02-23T07:25:01;8.30;;;4.20;;
51495;SDS011;37572;52.094;4.870;2024-02-23T07:27:29;6.53;;;3.58;;
51495;SDS011;37572;52.094;4.870;2024-02-23T07:29:55;6.38;;;3.05;;
51495;SDS011;37572;52.094;4.870;2024-02-23T07:32:21;6.05;;;3.25;;
51495;SDS011;37572;52.094;4.870;2024-02-23T07:34:46;7.35;;;2.90;;
51495;SDS011;37572;52.094;4.870;2024-02-23T07:37:11;6.68;;;3.50;;
51495;SDS011;37572;52.094;4.870;2024-02-23T07:39:38;5.70;;;2.80;;
51495;SDS011;37572;52.094;4.870;2024-02-23T07:42:03;9.50;;;3.67;;
51495;SDS011;37572;52.094;4.870;2024-02-23T07:44:30;6.93;;;2.85;;
51495;SDS011;37572;52.094;4.870;2024-02-23T07:46:56;6.28;;;2.58;;
51495;SDS011;37572;52.094;4.870;2024-02-23T07:49:23;8.27;;;2.40;;
51495;SDS011;37572;52.094;4.870;2024-02-23T07:51:49;6.10;;;2.55;;
51495;SDS011;37572;52.094;4.870;2024-02-23T07:54:14;7.38;;;2.38;;
51495;SDS011;37572;52.094;4.870;2024-02-23T07:56:39;7.40;;;2.07;;
51495;SDS011;37572;52.094;4.870;2024-02-23T07:59:05;7.03;;;2.63;;
51495;SDS011;37572;52.094;4.870;2024-02-23T08:01:30;4.93;;;2.23;;
51495;SDS011;37572;52.094;4.870;2024-02-23T08:03:55;6.17;;;2.77;;
51495;SDS011;37572;52.094;4.870;2024-02-23T08:06:21;5.55;;;2.60;;
51495;SDS011;37572;52.094;4.870;2024-02-23T08:08:46;6.05;;;3.28;;
51495;SDS011;37572;52.094;4.870;2024-02-23T08:11:12;7.28;;;3.22;;
51495;SDS011;37572;52.094;4.870;2024-02-23T08:13:38;6.63;;;2.58;;
51495;SDS011;37572;52.094;4.870;2024-02-23T08:16:04;4.97;;;2.30;;
51495;SDS011;37572;52.094;4.870;2024-02-23T08:18:30;6.00;;;2.58;;
51495;SDS011;37572;52.094;4.870;2024-02-23T08:20:56;6.72;;;3.50;;
51495;SDS011;37572;52.094;4.870;2024-02-23T08:23:22;7.38;;;2.58;;
51495;SDS011;37572;52.094;4.870;2024-02-23T08:25:48;3.35;;;2.38;;
51495;SDS011;37572;52.094;4.870;2024-02-23T08:28:13;7.03;;;1.83;;
51495;SDS011;37572;52.094;4.870;2024-02-23T08:30:38;12.10;;;4.50;;
51495;SDS011;37572;52.094;4.870;2024-02-23T08:33:04;8.17;;;2.83;;
51495;SDS011;37572;52.094;4.870;2024-02-23T08:35:30;5.45;;;2.50;;
51495;SDS011;37572;52.094;4.870;2024-02-23T08:37:56;7.00;;;2.20;;
51495;SDS011;37572;52.094;4.870;2024-02-23T08:40:21;7.68;;;2.53;;
51495;SDS011;37572;52.094;4.870;2024-02-23T08:42:48;5.97;;;2.78;;
51495;SDS011;37572;52.094;4.870;2024-02-23T08:45:14;9.60;;;2.83;;
51495;SDS011;37572;52.094;4.870;2024-02-23T08:47:41;5.88;;;2.88;;
51495;SDS011;37572;52.094;4.870;2024-02-23T08:50:06;5.90;;;2.53;;
51495;SDS011;37572;52.094;4.870;2024-02-23T08:52:32;5.68;;;2.67;;
51495;SDS011;37572;52.094;4.870;2024-02-23T08:54:57;6.77;;;3.17;;
51495;SDS011;37572;52.094;4.870;2024-02-23T08:57:23;4.97;;;3.40;;
51495;SDS011;37572;52.094;4.870;2024-02-23T08:59:48;6.78;;;2.65;;
51495;SDS011;37572;52.094;4.870;2024-02-23T09:02:14;7.00;;;3.08;;
51495;SDS011;37572;52.094;4.870;2024-02-23T09:04:40;6.75;;;3.03;;
51495;SDS011;37572;52.094;4.870;2024-02-23T09:07:05;5.05;;;3.55;;
51495;SDS011;37572;52.094;4.870;2024-02-23T09:09:31;7.25;;;3.60;;
51495;SDS011;37572;52.094;4.870;2024-02-23T09:11:56;4.85;;;2.65;;
51495;SDS011;37572;52.094;4.870;2024-02-23T09:14:22;8.93;;;3.10;;
51495;SDS011;37572;52.094;4.870;2024-02-23T09:16:47;6.13;;;3.40;;
51495;SDS011;37572;52.094;4.870;2024-02-23T09:19:15;6.57;;;3.42;;
51495;SDS011;37572;52.094;4.870;2024-02-23T09:21:44;8.60;;;3.95;;
51495;SDS011;37572;52.094;4.870;2024-02-23T09:24:10;6.63;;;3.47;;
51495;SDS011;37572;52.094;4.870;2024-02-23T09:26:35;8.52;;;3.58;;
51495;SDS011;37572;52.094;4.870;2024-02-23T09:29:00;6.97;;;3.23;;
51495;SDS011;37572;52.094;4.870;2024-02-23T09:31:26;6.80;;;3.60;;
51495;SDS011;37572;52.094;4.870;2024-02-23T09:33:53;6.63;;;3.05;;
51495;SDS011;37572;52.094;4.870;2024-02-23T09:36:19;4.68;;;2.45;;
51495;SDS011;37572;52.094;4.870;2024-02-23T09:38:44;6.77;;;2.60;;
51495;SDS011;37572;52.094;4.870;2024-02-23T09:41:17;6.68;;;2.72;;
51495;SDS011;37572;52.094;4.870;2024-02-23T09:43:48;4.47;;;2.80;;
51495;SDS011;37572;52.094;4.870;2024-02-23T09:46:15;6.10;;;2.88;;
51495;SDS011;37572;52.094;4.870;2024-02-23T09:48:42;5.35;;;2.53;;
51495;SDS011;37572;52.094;4.870;2024-02-23T09:51:08;4.70;;;2.47;;
51495;SDS011;37572;52.094;4.870;2024-02-23T09:53:37;7.78;;;2.70;;
51495;SDS011;37572;52.094;4.870;2024-02-23T09:56:03;3.67;;;2.25;;
51495;SDS011;37572;52.094;4.870;2024-02-23T09:58:29;6.40;;;2.45;;
51495;SDS011;37572;52.094;4.870;2024-02-23T10:00:57;5.95;;;2.45;;
51495;SDS011;37572;52.094;4.870;2024-02-23T10:03:24;5.45;;;2.65;;
51495;SDS011;37572;52.094;4.870;2024-02-23T10:05:53;6.90;;;2.33;;
51495;SDS011;37572;52.094;4.870;2024-02-23T10:08:19;9.57;;;3.13;;
51495;SDS011;37572;52.094;4.870;2024-02-23T10:10:45;6.07;;;2.22;;
51495;SDS011;37572;52.094;4.870;2024-02-23T10:13:12;8.55;;;2.90;;
51495;SDS011;37572;52.094;4.870;2024-02-23T10:15:37;5.55;;;2.30;;
51495;SDS011;37572;52.094;4.870;2024-02-23T10:18:03;3.92;;;2.35;;
51495;SDS011;37572;52.094;4.870;2024-02-23T10:20:29;5.47;;;2.13;;
51495;SDS011;37572;52.094;4.870;2024-02-23T10:22:54;5.30;;;2.13;;
51495;SDS011;37572;52.094;4.870;2024-02-23T10:25:21;7.45;;;2.22;;
51495;SDS011;37572;52.094;4.870;2024-02-23T10:27:47;5.10;;;2.58;;
51495;SDS011;37572;52.094;4.870;2024-02-23T10:30:13;5.77;;;2.40;;
51495;SDS011;37572;52.094;4.870;2024-02-23T10:32:40;3.78;;;2.05;;
51495;SDS011;37572;52.094;4.870;2024-02-23T10:35:09;6.53;;;2.72;;
51495;SDS011;37572;52.094;4.870;2024-02-23T10:37:35;4.40;;;3.28;;
51495;SDS011;37572;52.094;4.870;2024-02-23T10:40:01;4.20;;;2.10;;
51495;SDS011;37572;52.094;4.870;2024-02-23T10:42:30;5.03;;;2.10;;
51495;SDS011;37572;52.094;4.870;2024-02-23T10:44:59;3.78;;;1.70;;
51495;SDS011;37572;52.094;4.870;2024-02-23T10:47:26;5.07;;;2.13;;
51495;SDS011;37572;52.094;4.870;2024-02-23T10:49:53;3.72;;;2.45;;
51495;SDS011;37572;52.094;4.870;2024-02-23T10:52:20;4.10;;;2.83;;
51495;SDS011;37572;52.094;4.870;2024-02-23T10:54:48;3.75;;;2.60;;
51495;SDS011;37572;52.094;4.870;2024-02-23T10:57:15;3.72;;;1.90;;
51495;SDS011;37572;52.094;4.870;2024-02-23T10:59:44;4.07;;;2.03;;
51495;SDS011;37572;52.094;4.870;2024-02-23T11:02:13;5.57;;;2.55;;
51495;SDS011;37572;52.094;4.870;2024-02-23T11:04:47;6.97;;;2.72;;
51495;SDS011;37572;52.094;4.870;2024-02-23T11:07:20;6.53;;;2.55;;
51495;SDS011;37572;52.094;4.870;2024-02-23T11:09:51;4.18;;;2.15;;
51495;SDS011;37572;52.094;4.870;2024-02-23T11:12:26;5.85;;;2.35;;
51495;SDS011;37572;52.094;4.870;2024-02-23T11:14:57;5.28;;;2.03;;
51495;SDS011;37572;52.094;4.870;2024-02-23T11:17:26;4.07;;;1.63;;
51495;SDS011;37572;52.094;4.870;2024-02-23T11:19:54;6.00;;;2.10;;
51495;SDS011;37572;52.094;4.870;2024-02-23T11:22:26;5.43;;;1.60;;
51495;SDS011;37572;52.094;4.870;2024-02-23T11:24:52;4.72;;;1.88;;
51495;SDS011;37572;52.094;4.870;2024-02-23T11:27:18;8.10;;;2.20;;
51495;SDS011;37572;52.094;4.870;2024-02-23T11:29:46;5.22;;;1.63;;
51495;SDS011;37572;52.094;4.870;2024-02-23T11:32:15;5.18;;;2.92;;
51495;SDS011;37572;52.094;4.870;2024-02-23T11:34:42;4.30;;;1.95;;
51495;SDS011;37572;52.094;4.870;2024-02-23T11:37:19;6.47;;;1.65;;
51495;SDS011;37572;52.094;4.870;2024-02-23T11:39:45;6.57;;;1.73;;
51495;SDS011;37572;52.094;4.870;2024-02-23T11:42:10;4.53;;;1.50;;
51495;SDS011;37572;52.094;4.870;2024-02-23T11:44:36;4.05;;;1.42;;
51495;SDS011;37572;52.094;4.870;2024-02-23T11:47:01;4.93;;;1.50;;
51495;SDS011;37572;52.094;4.870;2024-02-23T11:49:30;5.75;;;1.50;;
51495;SDS011;37572;52.094;4.870;2024-02-23T11:51:55;5.13;;;1.73;;
51495;SDS011;37572;52.094;4.870;2024-02-23T11:54:21;2.78;;;1.88;;
51495;SDS011;37572;52.094;4.870;2024-02-23T11:56:47;3.45;;;1.23;;
51495;SDS011;37572;52.094;4.870;2024-02-23T11:59:14;5.30;;;1.48;;
51495;SDS011;37572;52.094;4.870;2024-02-23T12:01:46;5.65;;;2.30;;
51495;SDS011;37572;52.094;4.870;2024-02-23T12:04:14;4.13;;;1.45;;
51495;SDS011;37572;52.094;4.870;2024-02-23T12:06:41;5.55;;;1.73;;
51495;SDS011;37572;52.094;4.870;2024-02-23T12:09:07;6.38;;;1.55;;
51495;SDS011;37572;52.094;4.870;2024-02-23T12:11:33;2.75;;;1.13;;
51495;SDS011;37572;52.094;4.870;2024-02-23T12:13:59;5.72;;;1.70;;
51495;SDS011;37572;52.094;4.870;2024-02-23T12:16:27;4.85;;;1.60;;
51495;SDS011;37572;52.094;4.870;2024-02-23T12:18:53;4.32;;;1.20;;
51495;SDS011;37572;52.094;4.870;2024-02-23T12:21:20;3.42;;;1.45;;
51495;SDS011;37572;52.094;4.870;2024-02-23T12:23:45;4.82;;;1.40;;
51495;SDS011;37572;52.094;4.870;2024-02-23T12:26:14;4.60;;;1.25;;
51495;SDS011;37572;52.094;4.870;2024-02-23T12:28:40;2.50;;;1.60;;
51495;SDS011;37572;52.094;4.870;2024-02-23T12:31:06;3.38;;;1.58;;
51495;SDS011;37572;52.094;4.870;2024-02-23T12:33:33;4.65;;;1.42;;
51495;SDS011;37572;52.094;4.870;2024-02-23T12:36:00;4.13;;;1.10;;
51495;SDS011;37572;52.094;4.870;2024-02-23T12:38:26;5.47;;;1.02;;
51495;SDS011;37572;52.094;4.870;2024-02-23T12:40:51;4.32;;;1.35;;
51495;SDS011;37572;52.094;4.870;2024-02-23T12:43:17;5.47;;;1.48;;
51495;SDS011;37572;52.094;4.870;2024-02-23T12:45:43;2.78;;;1.02;;
51495;SDS011;37572;52.094;4.870;2024-02-23T12:48:14;3.72;;;1.10;;
51495;SDS011;37572;52.094;4.870;2024-02-23T12:50:40;4.43;;;1.30;;
51495;SDS011;37572;52.094;4.870;2024-02-23T12:53:05;4.50;;;2.53;;
51495;SDS011;37572;52.094;4.870;2024-02-23T12:55:31;4.43;;;1.77;;
51495;SDS011;37572;52.094;4.870;2024-02-23T12:57:56;2.78;;;1.02;;
51495;SDS011;37572;52.094;4.870;2024-02-23T13:00:21;5.73;;;1.17;;
51495;SDS011;37572;52.094;4.870;2024-02-23T13:02:46;4.60;;;1.33;;
51495;SDS011;37572;52.094;4.870;2024-02-23T13:05:12;4.47;;;1.05;;
51495;SDS011;37572;52.094;4.870;2024-02-23T13:07:37;3.73;;;1.20;;
51495;SDS011;37572;52.094;4.870;2024-02-23T13:10:05;4.00;;;1.85;;
51495;SDS011;37572;52.094;4.870;2024-02-23T13:12:31;6.25;;;1.85;;
51495;SDS011;37572;52.094;4.870;2024-02-23T13:14:56;5.20;;;2.00;;
51495;SDS011;37572;52.094;4.870;2024-02-23T13:17:21;4.10;;;1.80;;
51495;SDS011;37572;52.094;4.870;2024-02-23T13:19:47;3.92;;;0.98;;
51495;SDS011;37572;52.094;4.870;2024-02-23T13:22:12;4.00;;;2.07;;
51495;SDS011;37572;52.094;4.870;2024-02-23T13:24:37;7.10;;;1.83;;
51495;SDS011;37572;52.094;4.870;2024-02-23T13:27:05;3.22;;;1.63;;
51495;SDS011;37572;52.094;4.870;2024-02-23T13:29:30;3.70;;;1.77;;
51495;SDS011;37572;52.094;4.870;2024-02-23T13:31:55;5.83;;;1.63;;
51495;SDS011;37572;52.094;4.870;2024-02-23T13:34:21;4.32;;;2.00;;
51495;SDS011;37572;52.094;4.870;2024-02-23T13:36:46;4.43;;;1.80;;
51495;SDS011;37572;52.094;4.870;2024-02-23T13:39:12;3.30;;;1.20;;
51495;SDS011;37572;52.094;4.870;2024-02-23T13:41:38;5.40;;;2.15;;
51495;SDS011;37572;52.094;4.870;2024-02-23T13:44:03;4.93;;;1.42;;
51495;SDS011;37572;52.094;4.870;2024-02-23T13:46:29;2.63;;;1.08;;
51495;SDS011;37572;52.094;4.870;2024-02-23T13:49:01;3.10;;;0.98;;
51495;SDS011;37572;52.094;4.870;2024-02-23T13:51:29;3.40;;;1.05;;
51495;SDS011;37572;52.094;4.870;2024-02-23T13:53:55;2.08;;;1.02;;
51495;SDS011;37572;52.094;4.870;2024-02-23T13:56:20;3.03;;;1.20;;
51495;SDS011;37572;52.094;4.870;2024-02-23T13:58:45;4.10;;;0.90;;
51495;SDS011;37572;52.094;4.870;2024-02-23T14:01:11;3.03;;;0.77;;
51495;SDS011;37572;52.094;4.870;2024-02-23T14:03:36;2.88;;;1.20;;
51495;SDS011;37572;52.094;4.870;2024-02-23T14:06:02;2.67;;;0.98;;
51495;SDS011;37572;52.094;4.870;2024-02-23T14:08:27;4.18;;;1.08;;
51495;SDS011;37572;52.094;4.870;2024-02-23T14:10:52;1.93;;;0.90;;
51495;SDS011;37572;52.094;4.870;2024-02-23T14:13:18;3.25;;;0.85;;
51495;SDS011;37572;52.094;4.870;2024-02-23T14:15:44;2.78;;;0.88;;
51495;SDS011;37572;52.094;4.870;2024-02-23T14:18:10;3.08;;;0.82;;
51495;SDS011;37572;52.094;4.870;2024-02-23T14:20:35;2.03;;;0.95;;
51495;SDS011;37572;52.094;4.870;2024-02-23T14:23:01;2.13;;;0.80;;
51495;SDS011;37572;52.094;4.870;2024-02-23T14:25:26;2.90;;;0.60;;
51495;SDS011;37572;52.094;4.870;2024-02-23T14:27:51;2.60;;;1.17;;
51495;SDS011;37572;52.094;4.870;2024-02-23T14:30:16;2.17;;;0.73;;
51495;SDS011;37572;52.094;4.870;2024-02-23T14:32:43;2.38;;;0.90;;
51495;SDS011;37572;52.094;4.870;2024-02-23T14:35:08;1.95;;;0.77;;
51495;SDS011;37572;52.094;4.870;2024-02-23T14:37:34;2.10;;;0.80;;
51495;SDS011;37572;52.094;4.870;2024-02-23T14:39:59;1.40;;;0.93;;